createdAt,value
2023-05-05T00:01:03.988Z,96938.59
2023-05-05T00:03:09.043Z,96939.19
2023-05-05T00:05:13.984Z,96933.38
2023-05-05T00:07:18.760Z,96931.81
2023-05-05T00:09:23.576Z,96933.19
2023-05-05T00:11:28.874Z,96934.28
2023-05-05T00:13:36.258Z,96934.59
2023-05-05T00:15:41.902Z,96931.44
2023-05-05T00:17:46.636Z,96935.47
2023-05-05T00:19:51.537Z,96943.75
2023-05-05T00:21:56.699Z,96943.59
2023-05-05T00:24:01.391Z,96945.44
2023-05-05T00:26:06.638Z,96935.38
2023-05-05T00:28:11.673Z,96942.88
2023-05-05T00:30:19.232Z,96942.38
2023-05-05T00:32:23.984Z,96947.22
2023-05-05T00:34:28.670Z,96944.84
2023-05-05T00:36:33.391Z,96935.59
2023-05-05T00:38:38.263Z,96938.25
2023-05-05T00:40:42.997Z,96937.47
2023-05-05T00:42:50.963Z,96935.44
2023-05-05T00:44:56.111Z,96943.66
2023-05-05T00:47:03.741Z,96941.59
2023-05-05T00:49:08.563Z,96936.59
2023-05-05T00:51:13.274Z,96942.22
2023-05-05T00:53:18.315Z,96943.31
2023-05-05T00:55:23.640Z,96942.50
2023-05-05T00:57:28.906Z,96939.66
2023-05-05T00:59:35.798Z,96941.03
2023-05-05T01:01:40.637Z,96935.56
2023-05-05T01:03:48.031Z,96930.03
2023-05-05T01:06:01.827Z,96935.63
2023-05-05T01:08:22.453Z,96931.69
2023-05-05T01:10:38.407Z,96928.56
2023-05-05T01:12:54.260Z,96927.56
2023-05-05T01:15:06.242Z,96927.88
2023-05-05T01:17:20.203Z,96931.91
2023-05-05T01:19:53.804Z,96930.91
2023-05-05T01:22:01.684Z,96932.31
2023-05-05T01:24:42.038Z,96925.72
2023-05-05T01:27:07.798Z,96934.28
2023-05-05T01:29:35.056Z,96931.41
2023-05-05T01:31:53.337Z,96932.00
2023-05-05T01:34:02.849Z,96934.19
2023-05-05T01:36:14.721Z,96924.16
2023-05-05T01:38:22.517Z,96926.81
2023-05-05T01:40:33.052Z,96931.59
2023-05-05T01:42:40.864Z,96929.25
2023-05-05T01:44:46.866Z,96932.69
2023-05-05T01:46:55.142Z,96932.19
2023-05-05T01:49:01.614Z,96935.94
2023-05-05T01:51:08.174Z,96933.88
2023-05-05T01:53:15.007Z,96930.72
2023-05-05T01:55:22.236Z,96931.78
2023-05-05T01:57:29.415Z,96924.13
2023-05-05T01:59:35.131Z,96927.06
2023-05-05T02:01:44.903Z,96926.59
2023-05-05T02:03:53.978Z,96926.38
2023-05-05T02:06:01.912Z,96923.25
2023-05-05T02:08:09.500Z,96929.91
2023-05-05T02:10:16.969Z,96925.97
2023-05-05T02:12:22.880Z,96928.63
2023-05-05T02:14:30.570Z,96925.78
2023-05-05T02:16:37.495Z,96923.91
2023-05-05T02:18:43.496Z,96928.44
2023-05-05T02:20:51.373Z,96923.41
2023-05-05T02:22:56.739Z,96925.25
2023-05-05T02:25:01.705Z,96925.25
2023-05-05T02:27:10.296Z,96925.84
2023-05-05T02:29:19.274Z,96926.94
2023-05-05T02:31:26.904Z,96934.38
2023-05-05T02:33:34.575Z,96924.84
2023-05-05T02:35:42.847Z,96926.53
2023-05-05T02:38:02.868Z,96929.72
2023-05-05T02:40:14.252Z,96934.25
2023-05-05T02:42:23.994Z,96931.13
2023-05-05T02:44:32.040Z,96936.44
2023-05-05T02:46:37.891Z,96936.22
2023-05-05T02:48:42.893Z,96941.50
2023-05-05T02:50:47.716Z,96941.03
2023-05-05T02:53:03.517Z,96939.25
2023-05-05T02:55:09.520Z,96941.38
2023-05-05T02:57:21.464Z,96937.72
2023-05-05T02:59:39.353Z,96940.97
2023-05-05T03:01:59.532Z,96933.59
2023-05-05T03:04:11.728Z,96947.66
2023-05-05T03:06:24.679Z,96934.66
2023-05-05T03:08:38.799Z,96927.81
2023-05-05T03:10:49.858Z,96940.53
2023-05-05T03:12:57.877Z,96935.25
2023-05-05T03:15:12.896Z,96933.97
2023-05-05T03:17:20.293Z,96935.03
2023-05-05T03:19:26.307Z,96931.88
2023-05-05T03:21:36.331Z,96938.28
2023-05-05T03:23:43.966Z,96934.34
2023-05-05T03:25:55.999Z,96933.56
2023-05-05T03:28:14.264Z,96940.22
2023-05-05T03:30:20.382Z,96940.50
2023-05-05T03:32:28.937Z,96936.56
2023-05-05T03:34:35.983Z,96944.03
2023-05-05T03:36:41.894Z,96938.22
2023-05-05T03:38:52.136Z,96942.50
2023-05-05T03:40:58.747Z,96943.59
2023-05-05T03:43:04.816Z,96945.72
2023-05-05T03:45:11.298Z,96952.91
2023-05-05T03:47:17.678Z,96952.13
2023-05-05T03:49:23.027Z,96955.06
2023-05-05T03:51:28.277Z,96949.75
2023-05-05T03:53:34.056Z,96949.75
2023-05-05T03:55:44.659Z,96943.66
2023-05-05T03:57:49.657Z,96944.47
2023-05-05T03:59:54.416Z,96943.66
2023-05-05T04:01:59.310Z,96942.88
2023-05-05T04:04:04.326Z,96943.66
2023-05-05T04:06:09.287Z,96936.81
2023-05-05T04:08:14.000Z,96942.88
2023-05-05T04:10:18.912Z,96931.50
2023-05-05T04:12:26.242Z,96943.16
2023-05-05T04:14:31.100Z,96941.88
2023-05-05T04:16:35.924Z,96938.72
2023-05-05T04:18:40.793Z,96937.44
2023-05-05T04:20:46.863Z,96936.13
2023-05-05T04:22:52.723Z,96940.94
2023-05-05T04:24:58.562Z,96937.78
2023-05-05T04:27:03.731Z,96937.00
2023-05-05T04:29:11.818Z,96939.16
2023-05-05T04:31:17.299Z,96936.50
2023-05-05T04:33:22.904Z,96932.56
2023-05-05T04:35:28.476Z,96937.34
2023-05-05T04:37:33.216Z,96933.91
2023-05-05T04:39:40.267Z,96936.84
2023-05-05T04:41:45.043Z,96941.66
2023-05-05T04:43:50.018Z,96942.22
2023-05-05T04:46:00.338Z,96949.66
2023-05-05T04:48:08.813Z,96948.06
2023-05-05T04:50:14.589Z,96951.53
2023-05-05T04:52:19.564Z,96948.59
2023-05-05T04:54:24.620Z,96944.56
2023-05-05T04:56:29.731Z,96949.31
2023-05-05T04:58:34.543Z,96943.75
2023-05-05T05:00:39.788Z,96954.81
2023-05-05T05:02:47.120Z,96955.59
2023-05-05T05:04:51.894Z,96957.19
2023-05-05T05:06:59.140Z,96963.28
2023-05-05T05:09:05.593Z,96959.56
2023-05-05T05:11:10.336Z,96971.75
2023-05-05T05:13:15.161Z,96962.72
2023-05-05T05:15:19.907Z,96962.72
2023-05-05T05:17:25.332Z,96968.03
2023-05-05T05:19:32.971Z,96964.56
2023-05-05T05:21:38.030Z,96966.94
2023-05-05T05:23:43.431Z,96971.94
2023-05-05T05:25:48.821Z,96971.66
2023-05-05T05:28:08.815Z,96971.38
2023-05-05T05:30:18.826Z,96967.66
2023-05-05T05:32:24.280Z,96960.50
2023-05-05T05:34:36.760Z,96966.31
2023-05-05T05:36:42.911Z,96969.44
2023-05-05T05:38:47.664Z,96963.56
2023-05-05T05:40:54.662Z,96965.66
2023-05-05T05:43:01.057Z,96970.41
2023-05-05T05:45:06.869Z,96969.81
2023-05-05T05:47:12.023Z,96969.72
2023-05-05T05:49:18.051Z,96968.38
2023-05-05T05:51:26.521Z,96971.25
2023-05-05T05:53:31.886Z,96970.69
2023-05-05T05:55:37.053Z,96976.19
2023-05-05T05:57:42.149Z,96975.59
2023-05-05T05:59:47.873Z,96975.03
2023-05-05T06:01:53.624Z,96976.03
2023-05-05T06:03:58.823Z,96972.31
2023-05-05T06:06:04.077Z,96974.66
2023-05-05T06:08:11.737Z,96979.69
2023-05-05T06:10:27.804Z,96967.72
2023-05-05T06:12:45.592Z,96972.44
2023-05-05T06:14:52.319Z,96972.63
2023-05-05T06:16:58.958Z,96965.97
2023-05-05T06:19:09.737Z,96969.63
2023-05-05T06:21:17.910Z,96975.13
2023-05-05T06:23:25.748Z,96983.31
2023-05-05T06:25:35.786Z,96981.94
2023-05-05T06:27:40.621Z,96987.16
2023-05-05T06:29:45.457Z,96982.06
2023-05-05T06:31:50.486Z,96983.06
2023-05-05T06:33:55.383Z,96981.41
2023-05-05T06:36:00.256Z,96988.50
2023-05-05T06:38:05.053Z,96988.44
2023-05-05T06:40:13.455Z,96982.25
2023-05-05T06:42:18.439Z,96980.28
2023-05-05T06:44:24.095Z,96984.72
2023-05-05T06:46:29.448Z,96983.03
2023-05-05T06:48:34.335Z,96987.97
2023-05-05T06:50:39.149Z,96988.94
2023-05-05T06:52:47.114Z,96990.25
2023-05-05T06:54:51.963Z,96988.28
2023-05-05T06:56:59.879Z,96987.09
2023-05-05T06:59:05.628Z,96989.66
2023-05-05T07:01:10.850Z,96990.84
2023-05-05T07:03:16.233Z,96993.41
2023-05-05T07:05:21.233Z,97000.97
2023-05-05T07:07:27.105Z,97004.31
2023-05-05T07:09:31.815Z,96996.25
2023-05-05T07:11:37.965Z,96994.56
2023-05-05T07:13:46.837Z,97000.56
2023-05-05T07:15:54.746Z,96994.38
2023-05-05T07:18:00.157Z,96993.81
2023-05-05T07:20:06.228Z,96993.97
2023-05-05T07:22:11.247Z,96989.66
2023-05-05T07:24:16.155Z,96999.69
2023-05-05T07:26:21.628Z,96988.44
2023-05-05T07:28:27.992Z,96984.56
2023-05-05T07:30:35.857Z,96985.25
2023-05-05T07:32:40.859Z,96991.56
2023-05-05T07:34:45.591Z,96986.44
2023-05-05T07:36:50.471Z,96989.75
2023-05-05T07:38:55.556Z,96986.97
2023-05-05T07:41:00.394Z,96981.81
2023-05-05T07:43:05.536Z,96982.19
2023-05-05T07:45:11.242Z,96984.75
2023-05-05T07:47:18.561Z,96984.63
2023-05-05T07:49:23.597Z,96977.00
2023-05-05T07:51:28.355Z,96983.47
2023-05-05T07:53:33.292Z,96979.00
2023-05-05T07:55:38.024Z,96983.09
2023-05-05T07:57:42.819Z,96980.81
2023-05-05T07:59:47.560Z,96979.78
2023-05-05T08:01:54.843Z,96981.66
2023-05-05T08:04:03.176Z,96979.84
2023-05-05T08:06:11.481Z,96978.78
2023-05-05T08:08:17.054Z,96975.88
2023-05-05T08:10:22.481Z,96978.06
2023-05-05T08:12:27.195Z,96974.34
2023-05-05T08:14:32.254Z,96973.09
2023-05-05T08:16:37.263Z,96980.41
2023-05-05T08:18:42.909Z,96981.66
2023-05-05T08:20:50.634Z,96977.28
2023-05-05T08:22:55.780Z,96976.63
2023-05-05T08:25:00.831Z,96974.41
2023-05-05T08:27:05.540Z,96979.88
2023-05-05T08:29:10.328Z,96967.28
2023-05-05T08:31:15.784Z,96974.91
2023-05-05T08:33:20.662Z,96966.34
2023-05-05T08:35:25.559Z,96966.88
2023-05-05T08:37:32.985Z,96967.47
2023-05-05T08:39:37.772Z,96969.13
2023-05-05T08:41:42.670Z,96971.88
2023-05-05T08:43:49.393Z,96967.69
2023-05-05T08:45:54.525Z,96967.28
2023-05-05T08:48:00.165Z,96963.09
2023-05-05T08:50:06.050Z,96970.41
2023-05-05T08:52:14.039Z,96964.34
2023-05-05T08:54:23.214Z,96959.03
2023-05-05T08:56:30.214Z,96961.72
2023-05-05T08:58:35.151Z,96957.53
2023-05-05T09:00:40.471Z,96968.25
2023-05-05T09:02:46.330Z,96960.56
2023-05-05T09:04:51.345Z,96968.50
2023-05-05T09:06:56.539Z,96968.09
2023-05-05T09:09:01.878Z,96968.44
2023-05-05T09:11:09.715Z,96964.53
2023-05-05T09:13:14.637Z,96970.19
2023-05-05T09:15:19.433Z,96957.91
2023-05-05T09:17:28.094Z,96970.84
2023-05-05T09:19:32.792Z,96971.53
2023-05-05T09:21:37.973Z,96970.25
2023-05-05T09:23:42.702Z,96966.78
2023-05-05T09:25:49.913Z,96964.41
2023-05-05T09:27:57.812Z,96960.09
2023-05-05T09:30:03.341Z,96965.44
2023-05-05T09:32:09.125Z,96958.44
2023-05-05T09:34:18.048Z,96963.38
2023-05-05T09:36:43.256Z,96960.31
2023-05-05T09:39:07.946Z,96956.09
2023-05-05T09:41:12.981Z,96957.56
2023-05-05T09:43:22.664Z,96952.50
2023-05-05T09:45:29.480Z,96952.41
2023-05-05T09:47:38.681Z,96949.19
2023-05-05T09:49:43.498Z,96952.50
2023-05-05T09:51:48.615Z,96958.47
2023-05-05T09:53:53.371Z,96949.41
2023-05-05T09:55:59.550Z,96950.34
2023-05-05T09:58:26.288Z,96945.88
2023-05-05T10:00:41.538Z,96946.75
2023-05-05T10:02:46.665Z,96949.16
2023-05-05T10:04:51.498Z,96945.81
2023-05-05T10:06:57.280Z,96938.59
2023-05-05T10:09:05.381Z,96944.47
2023-05-05T10:11:11.355Z,96951.16
2023-05-05T10:13:18.667Z,96944.38
2023-05-05T10:15:27.670Z,96944.50
2023-05-05T10:17:35.612Z,96948.13
2023-05-05T10:19:42.304Z,96949.38
2023-05-05T10:21:52.258Z,96948.78
2023-05-05T10:24:00.319Z,96945.88
2023-05-05T10:26:08.526Z,96949.47
2023-05-05T10:28:18.614Z,96937.66
2023-05-05T10:30:28.539Z,96936.25
2023-05-05T10:34:54.035Z,96932.19
2023-05-05T10:37:00.461Z,96929.88
2023-05-05T10:39:07.219Z,96936.09
2023-05-05T10:41:13.370Z,96925.28
2023-05-05T10:43:18.606Z,96922.59
2023-05-05T10:45:26.609Z,96921.03
2023-05-05T10:47:32.748Z,96922.53
2023-05-05T10:49:44.826Z,96920.97
2023-05-05T10:51:59.091Z,96924.81
2023-05-05T10:54:12.715Z,96921.75
2023-05-05T10:56:26.710Z,96919.47
2023-05-05T10:58:46.955Z,96911.38
2023-05-05T11:00:59.194Z,96905.22
2023-05-05T11:03:25.246Z,96912.16
2023-05-05T11:05:30.612Z,96905.97
2023-05-05T11:07:35.678Z,96908.75
2023-05-05T11:09:57.983Z,96906.53
2023-05-05T11:12:06.938Z,96903.88
2023-05-05T11:14:23.125Z,96901.63
2023-05-05T11:16:50.691Z,96890.53
2023-05-05T11:18:55.622Z,96892.94
2023-05-05T11:21:20.029Z,96881.81
2023-05-05T11:23:25.054Z,96882.63
2023-05-05T11:25:51.595Z,96881.13
2023-05-05T11:28:08.823Z,96876.88
2023-05-05T11:30:15.557Z,96876.13
2023-05-05T11:32:23.540Z,96866.91
2023-05-05T11:34:31.412Z,96873.13
2023-05-05T11:36:43.995Z,96874.69
2023-05-05T11:38:57.933Z,96870.31
2023-05-05T11:41:07.968Z,96861.00
2023-05-05T11:43:13.414Z,96862.56
2023-05-05T11:45:26.070Z,96861.00
2023-05-05T11:47:34.149Z,96857.81
2023-05-05T11:49:40.388Z,96857.06
2023-05-05T11:51:46.028Z,96858.25
2023-05-05T11:53:53.091Z,96852.91
2023-05-05T11:56:09.694Z,96857.19
2023-05-05T11:58:23.811Z,96852.91
2023-05-05T12:00:35.807Z,96843.69
2023-05-05T12:02:43.460Z,96849.47
2023-05-05T12:04:48.660Z,96842.59
2023-05-05T12:06:53.824Z,96852.66
2023-05-05T12:08:58.776Z,96843.81
2023-05-05T12:11:07.185Z,96839.97
2023-05-05T12:13:21.312Z,96841.94
2023-05-05T12:15:33.571Z,96844.63
2023-05-05T12:17:47.199Z,96842.31
2023-05-05T12:19:56.948Z,96837.66
2023-05-05T12:22:01.909Z,96842.63
2023-05-05T12:24:07.591Z,96841.84
2023-05-05T12:26:27.843Z,96840.25
2023-05-05T12:28:46.737Z,96833.22
2023-05-05T12:31:00.249Z,96824.69
2023-05-05T12:33:09.117Z,96828.91
2023-05-05T12:35:16.281Z,96828.47
2023-05-05T12:37:22.065Z,96816.88
2023-05-05T12:39:36.942Z,96816.81
2023-05-05T12:41:42.064Z,96815.22
2023-05-05T12:43:47.682Z,96808.97
2023-05-05T12:46:02.093Z,96811.22
2023-05-05T12:48:27.242Z,96808.47
2023-05-05T12:50:35.467Z,96806.06
2023-05-05T12:52:47.895Z,96802.22
2023-05-05T12:55:00.375Z,96802.13
2023-05-05T12:57:14.390Z,96799.00
2023-05-05T12:59:32.411Z,96781.63
2023-05-05T13:01:37.929Z,96788.97
2023-05-05T13:03:45.422Z,96783.13
2023-05-05T13:05:50.184Z,96779.66
2023-05-05T13:07:55.129Z,96781.56
2023-05-05T13:10:10.679Z,96781.16
2023-05-05T13:12:15.875Z,96781.16
2023-05-05T13:14:20.666Z,96780.41
2023-05-05T13:16:25.726Z,96777.69
2023-05-05T13:18:30.673Z,96775.38
2023-05-05T13:20:38.153Z,96773.03
2023-05-05T13:22:42.958Z,96775.31
2023-05-05T13:24:52.182Z,96772.22
2023-05-05T13:26:57.930Z,96766.03
2023-05-05T13:29:03.222Z,96762.91
2023-05-05T13:31:08.495Z,96759.47
2023-05-05T13:33:13.393Z,96763.28
2023-05-05T13:35:18.304Z,96755.56
2023-05-05T13:37:25.845Z,96752.44
2023-05-05T13:39:30.650Z,96751.66
2023-05-05T13:41:35.558Z,96745.50
2023-05-05T13:43:40.592Z,96749.34
2023-05-05T13:45:45.441Z,96742.38
2023-05-05T13:47:50.314Z,96735.47
2023-05-05T13:49:55.152Z,96732.75
2023-05-05T13:52:00.037Z,96729.63
2023-05-05T13:54:08.236Z,96731.56
2023-05-05T13:56:13.334Z,96733.47
2023-05-05T13:58:18.647Z,96735.38
2023-05-05T14:00:23.702Z,96730.75
2023-05-05T14:02:28.612Z,96715.75
2023-05-05T14:04:33.566Z,96713.81
2023-05-05T14:06:38.587Z,96709.19
2023-05-05T14:08:43.907Z,96711.13
2023-05-05T14:10:52.248Z,96711.13
2023-05-05T14:12:57.131Z,96698.03
2023-05-05T14:15:02.228Z,96696.88
2023-05-05T14:17:07.113Z,96691.50
2023-05-05T14:19:11.980Z,96694.19
2023-05-05T14:21:16.747Z,96690.69
2023-05-05T14:23:21.536Z,96688.81
2023-05-05T14:25:26.333Z,96688.81
2023-05-05T14:27:34.177Z,96682.25
2023-05-05T14:29:39.017Z,96685.75
2023-05-05T14:33:49.136Z,96681.13
2023-05-05T14:35:54.125Z,96675.72
2023-05-05T14:37:58.997Z,96682.25
2023-05-05T14:40:05.781Z,96684.25
2023-05-05T14:42:10.958Z,96676.16
2023-05-05T14:46:23.296Z,96681.56
2023-05-05T14:48:28.405Z,96677.28
2023-05-05T14:50:33.303Z,96685.75
2023-05-05T14:52:41.088Z,96672.25
2023-05-05T14:54:47.158Z,96669.94
2023-05-05T14:56:52.984Z,96668.38
2023-05-05T14:58:57.739Z,96664.91
2023-05-05T15:01:05.542Z,96666.81
2023-05-05T15:03:10.394Z,96664.13
2023-05-05T15:05:15.271Z,96662.59
2023-05-05T15:07:20.617Z,96669.88
2023-05-05T15:09:25.490Z,96666.78
2023-05-05T15:11:30.208Z,96670.97
2023-05-05T15:13:35.685Z,96661.31
2023-05-05T15:15:40.691Z,96664.00
2023-05-05T15:17:48.210Z,96657.47
2023-05-05T15:19:53.015Z,96662.84
2023-05-05T15:21:58.131Z,96655.91
2023-05-05T15:24:02.946Z,96656.25
2023-05-05T15:26:07.899Z,96645.47
2023-05-05T15:28:12.640Z,96645.84
2023-05-05T15:30:18.270Z,96642.38
2023-05-05T15:32:23.240Z,96639.69
2023-05-05T15:34:31.149Z,96643.53
2023-05-05T15:36:36.182Z,96639.25
2023-05-05T15:38:44.736Z,96639.25
2023-05-05T15:40:50.367Z,96635.81
2023-05-05T15:42:55.248Z,96645.78
2023-05-05T15:45:01.671Z,96633.47
2023-05-05T15:47:06.627Z,96635.00
2023-05-05T15:49:11.500Z,96635.38
2023-05-05T15:51:18.840Z,96631.16
2023-05-05T15:53:23.601Z,96629.22
2023-05-05T15:55:28.788Z,96627.66
2023-05-05T15:57:34.048Z,96634.59
2023-05-05T15:59:39.306Z,96626.88
2023-05-05T16:01:44.090Z,96624.56
2023-05-05T16:03:48.929Z,96625.31
2023-05-05T16:05:53.654Z,96625.69
2023-05-05T16:08:01.141Z,96622.22
2023-05-05T16:10:06.517Z,96629.19
2023-05-05T16:12:11.462Z,96633.78
2023-05-05T16:14:16.360Z,96628.75
2023-05-05T16:16:21.353Z,96626.41
2023-05-05T16:18:26.111Z,96626.78
2023-05-05T16:20:31.010Z,96621.75
2023-05-05T16:22:35.872Z,96621.00
2023-05-05T16:24:44.387Z,96621.34
2023-05-05T16:26:49.261Z,96621.66
2023-05-05T16:28:54.011Z,96623.22
2023-05-05T16:30:58.996Z,96612.06
2023-05-05T16:33:03.994Z,96616.66
2023-05-05T16:35:10.675Z,96614.75
2023-05-05T16:37:15.703Z,96609.34
2023-05-05T16:39:20.529Z,96610.50
2023-05-05T16:41:28.760Z,96607.78
2023-05-05T16:43:33.529Z,96597.78
2023-05-05T16:45:38.414Z,96599.72
2023-05-05T16:47:43.376Z,96599.72
2023-05-05T16:49:48.218Z,96598.94
2023-05-05T16:51:53.741Z,96595.47
2023-05-05T16:53:59.076Z,96598.16
2023-05-05T16:56:04.044Z,96595.81
2023-05-05T16:58:11.477Z,96598.88
2023-05-05T17:00:17.637Z,96606.56
2023-05-05T17:02:22.589Z,96608.81
2023-05-05T17:04:27.444Z,96605.72
2023-05-05T17:06:34.845Z,96608.78
2023-05-05T17:08:39.564Z,96614.53
2023-05-05T17:10:44.422Z,96610.63
2023-05-05T17:12:49.189Z,96608.31
2023-05-05T17:14:56.686Z,96600.19
2023-05-05T17:17:01.408Z,96600.56
2023-05-05T17:19:06.198Z,96595.09
2023-05-05T17:21:10.961Z,96597.38
2023-05-05T17:23:16.809Z,96598.88
2023-05-05T17:25:21.931Z,96597.69
2023-05-05T17:27:26.905Z,96587.63
2023-05-05T17:29:33.078Z,96589.94
2023-05-05T17:31:40.696Z,96584.47
2023-05-05T17:33:45.626Z,96589.44
2023-05-05T17:35:53.825Z,96588.25
2023-05-05T17:37:58.920Z,96587.84
2023-05-05T17:40:03.741Z,96581.25
2023-05-05T17:42:08.612Z,96587.00
2023-05-05T17:44:13.348Z,96583.88
2023-05-05T17:46:18.416Z,96580.78
2023-05-05T17:48:26.015Z,96579.94
2023-05-05T17:50:30.791Z,96583.00
2023-05-05T17:52:35.844Z,96590.66
2023-05-05T17:54:42.602Z,96582.13
2023-05-05T17:56:47.441Z,96584.41
2023-05-05T17:58:52.677Z,96587.81
2023-05-05T18:00:57.529Z,96590.50
2023-05-05T18:03:03.717Z,96583.91
2023-05-05T18:05:12.111Z,96571.97
2023-05-05T18:07:17.445Z,96571.19
2023-05-05T18:09:22.239Z,96568.88
2023-05-05T18:11:29.036Z,96563.84
2023-05-05T18:13:33.904Z,96567.25
2023-05-05T18:15:38.703Z,96554.16
2023-05-05T18:17:43.604Z,96554.50
2023-05-05T18:19:49.225Z,96548.72
2023-05-05T18:21:57.602Z,96554.81
2023-05-05T18:24:15.690Z,96550.56
2023-05-05T18:26:24.779Z,96555.88
2023-05-05T18:28:29.635Z,96565.06
2023-05-05T18:30:35.920Z,96561.19
2023-05-05T18:32:41.157Z,96558.09
2023-05-05T18:34:46.086Z,96555.75
2023-05-05T18:36:54.453Z,96548.41
2023-05-05T18:39:02.132Z,96555.28
2023-05-05T18:41:07.311Z,96575.22
2023-05-05T18:43:12.192Z,96593.63
2023-05-05T18:45:17.188Z,96603.94
2023-05-05T18:47:22.327Z,96609.69
2023-05-05T18:49:29.592Z,96622.34
2023-05-05T18:51:36.134Z,96627.31
2023-05-05T18:53:41.919Z,96634.59
2023-05-05T18:55:49.720Z,96639.53
2023-05-05T18:57:54.476Z,96643.34
2023-05-05T18:59:59.216Z,96641.03
2023-05-05T19:02:04.070Z,96637.56
2023-05-05T19:04:18.758Z,96640.63
2023-05-05T19:06:32.555Z,96649.38
2023-05-05T19:08:37.323Z,96647.81
2023-05-05T19:10:42.342Z,96648.19
2023-05-05T19:12:49.907Z,96653.13
2023-05-05T19:14:54.768Z,96657.72
2023-05-05T19:17:00.443Z,96658.06
2023-05-05T19:19:05.566Z,96658.44
2023-05-05T19:21:10.479Z,96656.09
2023-05-05T19:23:15.252Z,96648.34
2023-05-05T19:25:20.263Z,96645.22
2023-05-05T19:27:25.079Z,96635.97
2023-05-05T19:29:33.954Z,96634.00
2023-05-05T19:31:39.231Z,96645.06
2023-05-05T19:33:45.822Z,96672.31
2023-05-05T19:35:50.718Z,96719.47
2023-05-05T19:37:55.436Z,96794.53
2023-05-05T19:40:00.141Z,96791.06
2023-05-05T19:42:05.993Z,96821.63
2023-05-05T19:44:11.041Z,96850.13
2023-05-05T19:46:20.015Z,96870.91
2023-05-05T19:48:24.900Z,96886.47
2023-05-05T19:50:30.515Z,96875.69
2023-05-05T19:52:36.919Z,96882.72
2023-05-05T19:54:43.605Z,96887.31
2023-05-05T19:56:48.417Z,96891.31
2023-05-05T19:58:59.139Z,96875.88
2023-05-05T20:01:04.045Z,96874.84
2023-05-05T20:03:12.715Z,96875.38
2023-05-05T20:05:17.954Z,96871.81
2023-05-05T20:07:22.935Z,96854.25
2023-05-05T20:09:27.755Z,96863.63
2023-05-05T20:11:32.958Z,96850.44
2023-05-05T20:13:38.469Z,96862.13
2023-05-05T20:15:43.498Z,96865.13
2023-05-05T20:17:49.399Z,96859.31
2023-05-05T20:19:57.843Z,96852.41
2023-05-05T20:22:02.693Z,96863.13
2023-05-05T20:24:09.708Z,96858.53
2023-05-05T20:26:14.887Z,96847.84
2023-05-05T20:28:20.058Z,96852.84
2023-05-05T20:30:24.987Z,96847.50
2023-05-05T20:32:29.914Z,96844.81
2023-05-05T20:34:34.808Z,96845.94
2023-05-05T20:36:42.281Z,96845.16
2023-05-05T20:38:47.124Z,96841.25
2023-05-05T20:40:52.915Z,96861.44
2023-05-05T20:42:57.703Z,96863.06
2023-05-05T20:45:03.714Z,96885.34
2023-05-05T20:47:08.884Z,96895.97
2023-05-05T20:49:13.834Z,96897.34
2023-05-05T20:51:18.571Z,96899.91
2023-05-05T20:53:26.362Z,96908.75
2023-05-05T20:55:31.405Z,96905.50
2023-05-05T20:57:36.898Z,96896.22
2023-05-05T20:59:41.793Z,96900.78
2023-05-05T21:01:46.702Z,96899.69
2023-05-05T21:03:51.660Z,96902.03
2023-05-05T21:05:56.370Z,96901.56
2023-05-05T21:08:01.497Z,96898.13
2023-05-05T21:10:10.848Z,96907.56
2023-05-05T21:12:15.868Z,96903.78
2023-05-05T21:14:20.711Z,96905.81
2023-05-05T21:16:25.507Z,96912.41
2023-05-05T21:18:30.306Z,96905.63
2023-05-05T21:20:35.031Z,96898.41
2023-05-05T21:22:40.002Z,96899.50
2023-05-05T21:24:44.937Z,96889.44
2023-05-05T21:26:52.816Z,96889.00
2023-05-05T21:28:57.666Z,96888.09
2023-05-05T21:31:20.474Z,96878.16
2023-05-05T21:33:26.332Z,96875.81
2023-05-05T21:35:31.276Z,96878.50
2023-05-05T21:37:36.833Z,96877.38
2023-05-05T21:39:41.914Z,96877.06
2023-05-05T21:41:46.992Z,96878.31
2023-05-05T21:43:54.494Z,96886.00
2023-05-05T21:46:02.734Z,96878.44
2023-05-05T21:48:08.341Z,96878.88
2023-05-05T21:50:13.914Z,96876.69
2023-05-05T21:52:18.752Z,96875.59
2023-05-05T21:54:23.648Z,96877.94
2023-05-05T21:56:28.440Z,96881.38
2023-05-05T21:58:33.382Z,96876.03
2023-05-05T22:00:41.585Z,96887.50
2023-05-05T22:02:46.638Z,96890.16
2023-05-05T22:04:53.768Z,96887.50
2023-05-05T22:06:58.550Z,96894.41
2023-05-05T22:09:03.548Z,96879.47
2023-05-05T22:11:08.404Z,96883.28
2023-05-05T22:13:14.102Z,96876.03
2023-05-05T22:15:20.148Z,96877.94
2023-05-05T22:17:27.822Z,96884.38
2023-05-05T22:19:32.712Z,96882.16
2023-05-05T22:21:37.877Z,96887.50
2023-05-05T22:23:42.641Z,96888.31
2023-05-05T22:25:47.509Z,96895.53
2023-05-05T22:27:52.413Z,96895.84
2023-05-05T22:29:57.294Z,96899.66
2023-05-05T22:32:02.320Z,96901.53
2023-05-05T22:34:10.082Z,96907.19
2023-05-05T22:36:15.253Z,96902.66
2023-05-05T22:38:20.143Z,96906.41
2023-05-05T22:40:24.998Z,96903.75
2023-05-05T22:42:30.554Z,96905.63
2023-05-05T22:44:35.685Z,96905.94
2023-05-05T22:46:41.123Z,96903.25
2023-05-05T22:48:46.272Z,96900.91
2023-05-05T22:50:54.028Z,96905.50
2023-05-05T22:52:59.136Z,96910.84
2023-05-05T22:55:04.125Z,96904.72
2023-05-05T22:57:08.916Z,96910.38
2023-05-05T22:59:13.880Z,96906.16
2023-05-05T23:01:19.221Z,96901.56
2023-05-05T23:03:24.257Z,96900.78
2023-05-05T23:05:29.390Z,96895.78
2023-05-05T23:07:36.859Z,96889.94
2023-05-05T23:09:41.794Z,96897.53
2023-05-05T23:11:46.637Z,96892.81
2023-05-05T23:13:51.837Z,96889.38
2023-05-05T23:15:56.952Z,96882.47
2023-05-05T23:18:01.824Z,96884.03
2023-05-05T23:20:09.822Z,96884.81
2023-05-05T23:22:14.707Z,96894.72
2023-05-05T23:24:22.226Z,96882.78
2023-05-05T23:26:27.087Z,96875.53
2023-05-05T23:28:32.069Z,96879.31
2023-05-05T23:30:37.132Z,96878.22
2023-05-05T23:32:42.885Z,96873.97
2023-05-05T23:34:47.780Z,96871.28
2023-05-05T23:36:52.966Z,96876.63
2023-05-05T23:38:57.716Z,96881.97
2023-05-05T23:41:05.775Z,96885.78
2023-05-05T23:43:12.128Z,96878.53
2023-05-05T23:45:19.223Z,96876.97
2023-05-05T23:47:24.329Z,96875.41
2023-05-05T23:49:29.228Z,96878.09
2023-05-05T23:51:34.000Z,96878.09
2023-05-05T23:53:38.957Z,96881.84
2023-05-05T23:55:43.845Z,96879.50
2023-05-05T23:57:51.746Z,96881.72
2023-05-05T23:59:56.579Z,96869.47
